createdAt,value
2022-09-18T00:01:20.067Z,82.98
2022-09-18T00:03:46.225Z,82.59
2022-09-18T00:06:12.407Z,82.92
2022-09-18T00:08:38.534Z,82.83
2022-09-18T00:11:04.726Z,82.83
2022-09-18T00:13:30.876Z,82.87
2022-09-18T00:15:57.099Z,83.10
2022-09-18T00:18:23.248Z,83.04
2022-09-18T00:20:49.473Z,82.89
2022-09-18T00:23:15.725Z,83.00
2022-09-18T00:25:41.877Z,83.14
2022-09-18T00:28:08.059Z,83.00
2022-09-18T00:30:34.188Z,83.26
2022-09-18T00:33:00.295Z,83.30
2022-09-18T00:35:26.418Z,83.36
2022-09-18T00:37:52.517Z,83.42
2022-09-18T00:40:18.677Z,83.42
2022-09-18T00:42:44.854Z,83.54
2022-09-18T00:45:10.946Z,83.43
2022-09-18T00:47:37.065Z,83.65
2022-09-18T00:50:03.185Z,83.56
2022-09-18T00:52:29.293Z,83.42
2022-09-18T00:54:55.415Z,83.61
2022-09-18T00:57:21.538Z,83.62
2022-09-18T00:59:47.648Z,83.66
2022-09-18T01:02:13.775Z,83.81
2022-09-18T01:04:39.922Z,83.70
2022-09-18T01:07:06.010Z,83.84
2022-09-18T01:09:32.096Z,84.13
2022-09-18T01:11:58.213Z,83.83
2022-09-18T01:14:24.308Z,83.98
2022-09-18T01:16:50.404Z,83.85
2022-09-18T01:19:16.514Z,84.12
2022-09-18T01:21:42.618Z,83.97
2022-09-18T01:24:08.701Z,83.98
2022-09-18T01:26:35.293Z,84.00
2022-09-18T01:29:01.397Z,84.06
2022-09-18T01:31:27.527Z,84.11
2022-09-18T01:33:54.161Z,83.94
2022-09-18T01:36:20.260Z,83.91
2022-09-18T01:38:46.345Z,84.17
2022-09-18T01:41:12.493Z,84.04
2022-09-18T01:43:38.578Z,84.21
2022-09-18T01:46:04.725Z,84.13
2022-09-18T01:48:30.902Z,84.04
2022-09-18T01:50:57.004Z,84.10
2022-09-18T01:53:23.103Z,84.16
2022-09-18T01:55:49.216Z,84.04
2022-09-18T01:58:15.296Z,83.88
2022-09-18T02:00:41.388Z,84.09
2022-09-18T02:03:07.497Z,83.99
2022-09-18T02:05:33.603Z,83.94
2022-09-18T02:07:59.688Z,83.88
2022-09-18T02:10:25.821Z,83.95
2022-09-18T02:12:51.972Z,83.92
2022-09-18T02:15:18.105Z,83.75
2022-09-18T02:17:44.506Z,83.85
2022-09-18T02:20:10.609Z,83.93
2022-09-18T02:22:36.700Z,83.92
2022-09-18T02:25:02.828Z,83.95
2022-09-18T02:27:28.922Z,83.89
2022-09-18T02:29:55.030Z,83.78
2022-09-18T02:32:21.151Z,83.87
2022-09-18T02:34:47.262Z,83.81
2022-09-18T02:37:13.369Z,83.85
2022-09-18T02:39:39.778Z,83.78
2022-09-18T02:42:05.883Z,83.89
2022-09-18T02:44:31.993Z,83.95
2022-09-18T02:46:58.147Z,83.84
2022-09-18T02:49:24.365Z,83.87
2022-09-18T02:51:50.455Z,83.83
2022-09-18T02:54:16.579Z,84.06
2022-09-18T02:56:42.667Z,84.26
2022-09-18T02:59:08.768Z,84.23
2022-09-18T03:01:34.968Z,84.35
2022-09-18T03:04:01.097Z,84.23
2022-09-18T03:06:27.203Z,84.58
2022-09-18T03:08:53.307Z,84.46
2022-09-18T03:11:19.401Z,84.40
2022-09-18T03:13:45.498Z,84.46
2022-09-18T03:16:11.670Z,84.41
2022-09-18T03:18:37.835Z,84.56
2022-09-18T03:21:03.912Z,84.36
2022-09-18T03:23:30.032Z,84.31
2022-09-18T03:25:56.136Z,84.41
2022-09-18T03:28:22.218Z,84.58
2022-09-18T03:30:48.821Z,84.70
2022-09-18T03:33:14.900Z,84.86
2022-09-18T03:35:40.981Z,84.67
2022-09-18T03:38:07.093Z,84.77
2022-09-18T03:40:33.245Z,84.67
2022-09-18T03:42:59.424Z,84.87
2022-09-18T03:45:25.551Z,84.80
2022-09-18T03:47:51.689Z,84.77
2022-09-18T03:50:17.781Z,84.91
2022-09-18T03:52:47.774Z,85.03
2022-09-18T03:55:16.581Z,85.25
2022-09-18T03:57:42.670Z,85.40
2022-09-18T04:00:08.807Z,85.51
2022-09-18T04:02:34.950Z,85.86
2022-09-18T04:05:01.080Z,85.97
2022-09-18T04:07:27.202Z,86.14
2022-09-18T04:09:53.286Z,86.42
2022-09-18T04:12:19.382Z,86.64
2022-09-18T04:14:45.504Z,87.08
2022-09-18T04:17:11.605Z,87.26
2022-09-18T04:19:37.703Z,87.63
2022-09-18T04:22:04.347Z,87.93
2022-09-18T04:24:30.450Z,88.04
2022-09-18T04:26:56.538Z,88.37
2022-09-18T04:29:22.645Z,88.72
2022-09-18T04:31:48.784Z,88.91
2022-09-18T04:34:14.925Z,89.13
2022-09-18T04:36:41.033Z,89.53
2022-09-18T04:39:07.135Z,89.67
2022-09-18T04:41:33.240Z,90.03
2022-09-18T04:43:59.564Z,90.17
2022-09-18T04:46:25.675Z,90.57
2022-09-18T04:48:51.788Z,90.63
2022-09-18T04:51:17.891Z,90.87
2022-09-18T04:53:43.986Z,90.74
2022-09-18T04:56:10.069Z,91.00
2022-09-18T04:58:36.187Z,91.37
2022-09-18T05:01:02.312Z,91.35
2022-09-18T05:03:28.432Z,91.65
2022-09-18T05:05:54.543Z,91.86
2022-09-18T05:08:20.650Z,91.91
2022-09-18T05:10:46.757Z,91.96
2022-09-18T05:13:12.887Z,92.20
2022-09-18T05:15:38.974Z,92.58
2022-09-18T05:18:10.533Z,92.73
2022-09-18T05:20:37.554Z,92.75
2022-09-18T05:23:03.643Z,92.95
2022-09-18T05:25:29.733Z,92.91
2022-09-18T05:27:55.840Z,93.00
2022-09-18T05:30:21.925Z,93.22
2022-09-18T05:32:48.043Z,93.24
2022-09-18T05:35:14.652Z,93.31
2022-09-18T05:37:40.760Z,93.35
2022-09-18T05:40:06.914Z,93.38
2022-09-18T05:42:33.057Z,93.60
2022-09-18T05:45:01.857Z,93.83
2022-09-18T05:47:28.313Z,93.69
2022-09-18T05:49:54.463Z,93.71
2022-09-18T05:52:20.560Z,93.93
2022-09-18T05:54:46.646Z,94.11
2022-09-18T05:57:12.775Z,94.08
2022-09-18T05:59:38.874Z,94.04
2022-09-18T06:02:05.123Z,94.18
2022-09-18T06:04:31.270Z,94.12
2022-09-18T06:06:57.364Z,94.17
2022-09-18T06:09:23.461Z,94.09
2022-09-18T06:11:49.567Z,94.11
2022-09-18T06:14:15.668Z,93.95
2022-09-18T06:16:42.589Z,94.04
2022-09-18T06:19:08.820Z,94.05
2022-09-18T06:21:34.919Z,94.05
2022-09-18T06:24:01.026Z,93.97
2022-09-18T06:26:27.154Z,93.96
2022-09-18T06:28:53.254Z,93.81
2022-09-18T06:31:19.423Z,93.63
2022-09-18T06:33:45.570Z,93.60
2022-09-18T06:36:11.657Z,93.52
2022-09-18T06:38:37.748Z,93.34
2022-09-18T06:41:04.354Z,93.16
2022-09-18T06:43:30.443Z,93.04
2022-09-18T06:45:56.544Z,92.96
2022-09-18T06:48:22.638Z,92.62
2022-09-18T06:50:48.728Z,92.70
2022-09-18T06:53:14.838Z,92.29
2022-09-18T06:55:40.967Z,92.18
2022-09-18T06:58:07.067Z,91.98
2022-09-18T07:00:33.265Z,91.82
2022-09-18T07:02:59.450Z,91.74
2022-09-18T07:05:25.538Z,91.50
2022-09-18T07:07:51.631Z,91.39
2022-09-18T07:10:17.754Z,91.23
2022-09-18T07:12:43.856Z,91.08
2022-09-18T07:15:09.962Z,90.84
2022-09-18T07:17:36.103Z,90.83
2022-09-18T07:20:02.198Z,90.72
2022-09-18T07:22:28.567Z,90.67
2022-09-18T07:24:54.727Z,90.63
2022-09-18T07:27:20.825Z,90.79
2022-09-18T07:29:46.922Z,90.70
2022-09-18T07:32:13.044Z,90.58
2022-09-18T07:34:39.133Z,90.58
2022-09-18T07:37:05.233Z,90.70
2022-09-18T07:39:31.338Z,90.78
2022-09-18T07:41:57.437Z,90.83
2022-09-18T07:44:23.541Z,90.97
2022-09-18T07:46:49.753Z,91.01
2022-09-18T07:49:15.918Z,91.06
2022-09-18T07:51:42.026Z,91.22
2022-09-18T07:54:08.426Z,91.26
2022-09-18T07:56:34.518Z,91.30
2022-09-18T07:59:00.597Z,91.47
2022-09-18T08:01:28.538Z,91.47
2022-09-18T08:03:54.732Z,91.61
2022-09-18T08:06:20.823Z,91.75
2022-09-18T08:08:47.501Z,91.90
2022-09-18T08:11:15.128Z,92.04
2022-09-18T08:13:41.229Z,92.13
2022-09-18T08:16:07.438Z,92.28
2022-09-18T08:18:33.595Z,92.61
2022-09-18T08:20:59.690Z,92.61
2022-09-18T08:23:25.792Z,92.74
2022-09-18T08:25:51.876Z,92.84
2022-09-18T08:28:17.980Z,92.98
2022-09-18T08:30:44.616Z,92.97
2022-09-18T08:33:10.719Z,93.10
2022-09-18T08:35:36.812Z,93.12
2022-09-18T08:38:02.930Z,93.27
2022-09-18T08:40:29.067Z,93.22
2022-09-18T08:42:55.179Z,93.32
2022-09-18T08:45:21.318Z,93.38
2022-09-18T08:47:47.430Z,93.33
2022-09-18T08:50:13.522Z,93.35
2022-09-18T08:52:39.632Z,93.39
2022-09-18T08:55:05.740Z,93.51
2022-09-18T08:57:31.832Z,93.39
2022-09-18T08:59:57.980Z,93.62
2022-09-18T09:02:25.393Z,93.62
2022-09-18T09:04:51.604Z,93.69
2022-09-18T09:07:17.734Z,93.68
2022-09-18T09:09:43.826Z,93.77
2022-09-18T09:12:09.938Z,93.86
2022-09-18T09:14:56.232Z,93.74
2022-09-18T09:17:22.142Z,93.95
2022-09-18T09:19:48.262Z,93.90
2022-09-18T09:22:14.360Z,93.98
2022-09-18T09:24:40.458Z,94.04
2022-09-18T09:27:06.585Z,94.10
2022-09-18T09:29:32.675Z,93.70
2022-09-18T09:31:58.819Z,94.09
2022-09-18T09:34:25.069Z,94.14
2022-09-18T09:36:51.165Z,94.16
2022-09-18T09:39:17.253Z,94.19
2022-09-18T09:41:43.362Z,94.12
2022-09-18T09:44:09.459Z,94.28
2022-09-18T09:46:35.601Z,94.46
2022-09-18T09:49:01.719Z,94.50
2022-09-18T09:51:27.810Z,94.47
2022-09-18T09:53:53.905Z,94.50
2022-09-18T09:56:20.028Z,94.57
2022-09-18T09:58:46.142Z,94.70
2022-09-18T10:01:12.295Z,94.87
2022-09-18T10:03:38.429Z,94.93
2022-09-18T10:06:04.518Z,95.02
2022-09-18T10:08:30.637Z,94.91
2022-09-18T10:10:56.755Z,95.09
2022-09-18T10:13:22.833Z,95.17
2022-09-18T10:15:48.950Z,95.13
2022-09-18T10:18:16.451Z,95.22
2022-09-18T10:20:42.656Z,95.35
2022-09-18T10:23:08.757Z,95.55
2022-09-18T10:25:34.852Z,95.50
2022-09-18T10:28:00.950Z,95.59
2022-09-18T10:30:27.033Z,95.75
2022-09-18T10:32:53.206Z,95.80
2022-09-18T10:35:19.295Z,95.81
2022-09-18T10:37:45.502Z,95.90
2022-09-18T10:40:11.892Z,95.94
2022-09-18T10:42:38.307Z,96.01
2022-09-18T10:45:04.511Z,96.00
2022-09-18T10:47:31.113Z,96.06
2022-09-18T10:49:57.376Z,96.22
2022-09-18T10:52:23.686Z,96.29
2022-09-18T10:54:50.071Z,96.39
2022-09-18T10:57:16.257Z,96.33
2022-09-18T10:59:42.411Z,96.36
2022-09-18T11:02:09.555Z,96.50
2022-09-18T11:04:35.816Z,96.58
2022-09-18T11:07:02.002Z,96.53
2022-09-18T11:09:28.352Z,96.64
2022-09-18T11:11:54.673Z,96.73
2022-09-18T11:14:20.769Z,96.69
2022-09-18T11:16:46.950Z,96.76
2022-09-18T11:19:13.100Z,96.82
2022-09-18T11:21:39.189Z,96.79
2022-09-18T11:24:05.340Z,97.00
2022-09-18T11:26:33.413Z,97.00
2022-09-18T11:28:59.515Z,97.11
2022-09-18T11:31:25.780Z,97.13
2022-09-18T11:33:51.959Z,97.22
2022-09-18T11:36:18.156Z,97.23
2022-09-18T11:38:44.829Z,97.31
2022-09-18T11:41:10.954Z,97.35
2022-09-18T11:43:37.041Z,97.47
2022-09-18T11:46:03.184Z,97.43
2022-09-18T11:48:29.275Z,97.41
2022-09-18T11:50:55.361Z,97.53
2022-09-18T11:53:21.476Z,97.57
2022-09-18T11:55:47.566Z,97.35
2022-09-18T11:58:13.672Z,97.69
2022-09-18T12:00:39.782Z,97.72
2022-09-18T12:03:05.934Z,97.70
2022-09-18T12:05:32.109Z,97.71
2022-09-18T12:07:57.438Z,97.77
2022-09-18T12:10:23.538Z,97.79
2022-09-18T12:12:49.649Z,97.64
2022-09-18T12:15:15.767Z,97.83
2022-09-18T12:17:41.871Z,97.83
2022-09-18T12:20:07.985Z,98.01
2022-09-18T12:22:34.116Z,97.88
2022-09-18T12:25:00.209Z,97.91
2022-09-18T12:27:27.885Z,98.01
2022-09-18T12:29:54.168Z,97.98
2022-09-18T12:32:20.494Z,97.85
2022-09-18T12:34:46.639Z,97.83
2022-09-18T12:37:12.767Z,97.92
2022-09-18T12:39:39.533Z,97.91
2022-09-18T12:42:05.615Z,98.18
2022-09-18T12:44:31.770Z,97.88
2022-09-18T12:47:00.579Z,98.01
2022-09-18T12:49:26.907Z,97.98
2022-09-18T12:51:53.505Z,98.21
2022-09-18T12:54:19.596Z,98.18
2022-09-18T12:56:45.802Z,98.14
2022-09-18T12:59:11.928Z,98.10
2022-09-18T13:01:38.120Z,98.06
2022-09-18T13:04:04.400Z,98.17
2022-09-18T13:06:30.781Z,98.22
2022-09-18T13:08:56.968Z,98.35
2022-09-18T13:11:23.408Z,98.30
2022-09-18T13:13:49.784Z,98.16
2022-09-18T13:16:16.703Z,98.30
2022-09-18T13:18:43.180Z,98.36
2022-09-18T13:21:09.425Z,98.68
2022-09-18T13:23:35.631Z,98.38
2022-09-18T13:26:01.742Z,98.87
2022-09-18T13:28:30.085Z,98.33
2022-09-18T13:30:56.272Z,98.36
2022-09-18T13:33:22.405Z,98.48
2022-09-18T13:35:48.544Z,98.51
2022-09-18T13:38:14.718Z,98.55
2022-09-18T13:40:40.893Z,98.77
2022-09-18T13:43:09.185Z,98.72
2022-09-18T13:45:35.375Z,98.88
2022-09-18T13:48:01.645Z,98.87
2022-09-18T13:50:27.974Z,98.82
2022-09-18T13:52:54.309Z,98.95
2022-09-18T13:55:20.595Z,98.99
2022-09-18T13:57:46.772Z,98.98
2022-09-18T14:00:13.008Z,98.97
2022-09-18T14:02:39.179Z,99.11
2022-09-18T14:05:05.529Z,98.96
2022-09-18T14:07:31.636Z,98.97
2022-09-18T14:10:01.827Z,99.25
2022-09-18T14:12:30.397Z,99.27
2022-09-18T14:14:56.568Z,99.38
2022-09-18T14:17:22.762Z,99.41
2022-09-18T14:19:49.080Z,99.39
2022-09-18T14:22:15.218Z,99.49
2022-09-18T14:24:41.437Z,99.46
2022-09-18T14:27:07.685Z,99.43
2022-09-18T14:29:33.963Z,99.46
2022-09-18T14:32:00.447Z,99.55
2022-09-18T14:34:26.787Z,99.60
2022-09-18T14:36:53.087Z,99.62
2022-09-18T14:39:19.388Z,99.69
2022-09-18T14:41:45.717Z,99.67
2022-09-18T14:44:11.959Z,99.67
2022-09-18T14:46:38.159Z,99.73
2022-09-18T14:49:04.508Z,99.74
2022-09-18T14:51:40.635Z,99.82
2022-09-18T14:54:15.681Z,99.92
2022-09-18T14:56:42.134Z,99.79
2022-09-18T14:59:08.502Z,99.93
2022-09-18T15:01:34.693Z,100.00
2022-09-18T15:04:01.050Z,100.00
2022-09-18T15:06:27.361Z,100.00
2022-09-18T15:08:53.540Z,100.00
2022-09-18T15:11:19.858Z,100.00
2022-09-18T15:13:46.079Z,100.00
2022-09-18T15:16:13.063Z,100.00
2022-09-18T15:18:39.284Z,100.00
2022-09-18T15:21:05.472Z,100.00
2022-09-18T15:23:31.892Z,100.00
2022-09-18T15:25:58.085Z,100.00
2022-09-18T15:28:24.262Z,100.00
2022-09-18T15:30:50.526Z,100.00
2022-09-18T15:33:16.715Z,100.00
2022-09-18T15:35:42.892Z,100.00
2022-09-18T15:38:12.157Z,100.00
2022-09-18T15:40:38.417Z,100.00
2022-09-18T15:43:04.796Z,100.00
2022-09-18T15:45:31.068Z,100.00
2022-09-18T15:47:57.297Z,100.00
2022-09-18T15:50:23.497Z,100.00
2022-09-18T15:52:49.782Z,100.00
2022-09-18T15:55:15.998Z,100.00
2022-09-18T15:57:42.300Z,100.00
2022-09-18T16:00:08.926Z,100.00
2022-09-18T16:02:35.274Z,100.00
2022-09-18T16:05:03.262Z,100.00
2022-09-18T16:07:29.525Z,100.00
2022-09-18T16:09:55.803Z,100.00
2022-09-18T16:12:21.931Z,100.00
2022-09-18T16:14:48.137Z,100.00
2022-09-18T16:17:14.254Z,100.00
2022-09-18T16:19:40.354Z,100.00
2022-09-18T16:22:06.558Z,100.00
2022-09-18T16:24:32.674Z,100.00
2022-09-18T16:26:58.762Z,100.00
2022-09-18T16:29:24.869Z,100.00
2022-09-18T16:31:51.006Z,100.00
2022-09-18T16:34:17.326Z,100.00
2022-09-18T16:36:43.430Z,100.00
2022-09-18T16:39:09.727Z,100.00
2022-09-18T16:41:35.841Z,100.00
2022-09-18T16:44:02.019Z,100.00
2022-09-18T16:46:28.197Z,100.00
2022-09-18T16:48:54.306Z,100.00
2022-09-18T16:51:20.706Z,100.00
2022-09-18T16:53:46.789Z,100.00
2022-09-18T16:56:12.882Z,100.00
2022-09-18T16:58:38.977Z,100.00
2022-09-18T17:01:05.150Z,100.00
2022-09-18T17:03:31.292Z,100.00
2022-09-18T17:05:57.405Z,100.00
2022-09-18T17:08:23.505Z,100.00
2022-09-18T17:10:49.661Z,100.00
2022-09-18T17:13:15.821Z,100.00
2022-09-18T17:15:42.134Z,100.00
2022-09-18T17:18:08.260Z,100.00
2022-09-18T17:20:34.390Z,100.00
2022-09-18T17:23:00.489Z,100.00
2022-09-18T17:25:26.590Z,100.00
2022-09-18T17:27:52.736Z,100.00
2022-09-18T17:30:18.828Z,100.00
2022-09-18T17:32:44.911Z,100.00
2022-09-18T17:35:11.010Z,100.00
2022-09-18T17:37:37.106Z,100.00
2022-09-18T17:40:03.268Z,100.00
2022-09-18T17:42:29.418Z,100.00
2022-09-18T17:44:55.497Z,100.00
2022-09-18T17:47:21.587Z,100.00
2022-09-18T17:49:47.693Z,100.00
2022-09-18T17:52:13.775Z,100.00
2022-09-18T17:54:39.869Z,100.00
2022-09-18T17:57:05.981Z,100.00
2022-09-18T17:59:32.070Z,100.00
2022-09-18T18:01:58.196Z,100.00
2022-09-18T18:04:24.832Z,100.00
2022-09-18T18:06:51.035Z,100.00
2022-09-18T18:09:17.233Z,100.00
2022-09-18T18:11:43.529Z,100.00
2022-09-18T18:14:09.789Z,100.00
2022-09-18T18:16:35.961Z,100.00
2022-09-18T18:19:02.322Z,100.00
2022-09-18T18:21:28.708Z,100.00
2022-09-18T18:23:54.847Z,100.00
2022-09-18T18:26:21.202Z,100.00
2022-09-18T18:28:47.382Z,100.00
2022-09-18T18:31:13.567Z,100.00
2022-09-18T18:33:39.835Z,100.00
2022-09-18T18:36:05.964Z,100.00
2022-09-18T18:38:32.082Z,100.00
2022-09-18T18:40:58.379Z,100.00
2022-09-18T18:43:24.597Z,100.00
2022-09-18T18:45:50.857Z,100.00
2022-09-18T18:48:20.070Z,100.00
2022-09-18T18:50:46.236Z,100.00
2022-09-18T18:53:12.367Z,100.00
2022-09-18T18:55:38.542Z,100.00
2022-09-18T18:58:04.754Z,100.00
2022-09-18T19:00:30.982Z,100.00
2022-09-18T19:02:57.267Z,100.00
2022-09-18T19:05:23.383Z,100.00
2022-09-18T19:07:49.632Z,100.00
2022-09-18T19:10:16.125Z,100.00
2022-09-18T19:12:42.283Z,100.00
2022-09-18T19:15:08.489Z,100.00
2022-09-18T19:17:34.665Z,100.00
2022-09-18T19:20:00.870Z,100.00
2022-09-18T19:22:27.070Z,100.00
2022-09-18T19:24:53.498Z,100.00
2022-09-18T19:27:19.912Z,100.00
2022-09-18T19:29:46.190Z,100.00
2022-09-18T19:32:13.300Z,100.00
2022-09-18T19:34:39.490Z,100.00
2022-09-18T19:37:11.380Z,100.00
2022-09-18T19:39:37.933Z,100.00
2022-09-18T19:42:04.118Z,100.00
2022-09-18T19:44:30.344Z,100.00
2022-09-18T19:46:56.640Z,100.00
2022-09-18T19:49:22.865Z,100.00
2022-09-18T19:51:49.154Z,100.00
2022-09-18T19:54:15.409Z,100.00
2022-09-18T19:56:43.324Z,100.00
2022-09-18T19:59:09.607Z,100.00
2022-09-18T20:01:35.837Z,100.00
2022-09-18T20:04:02.200Z,100.00
2022-09-18T20:06:28.515Z,100.00
2022-09-18T20:08:55.961Z,100.00
2022-09-18T20:11:22.321Z,100.00
2022-09-18T20:13:48.561Z,100.00
2022-09-18T20:16:15.427Z,100.00
2022-09-18T20:18:41.701Z,100.00
2022-09-18T20:21:07.969Z,100.00
2022-09-18T20:23:34.124Z,100.00
2022-09-18T20:26:00.293Z,100.00
2022-09-18T20:28:26.480Z,100.00
2022-09-18T20:30:52.728Z,100.00
2022-09-18T20:33:18.832Z,100.00
2022-09-18T20:35:44.933Z,100.00
2022-09-18T20:38:11.359Z,100.00
2022-09-18T20:40:37.650Z,100.00
2022-09-18T20:43:04.103Z,100.00
2022-09-18T20:45:30.340Z,100.00
2022-09-18T20:47:58.757Z,100.00
2022-09-18T20:50:24.999Z,100.00
2022-09-18T20:52:51.308Z,100.00
2022-09-18T20:55:17.519Z,100.00
2022-09-18T20:57:43.943Z,100.00
2022-09-18T21:00:10.349Z,100.00
2022-09-18T21:02:36.441Z,100.00
2022-09-18T21:05:02.538Z,100.00
2022-09-18T21:07:28.644Z,100.00
2022-09-18T21:09:58.145Z,100.00
2022-09-18T21:12:24.490Z,100.00
2022-09-18T21:14:50.759Z,100.00
2022-09-18T21:17:16.887Z,100.00
2022-09-18T21:19:42.966Z,100.00
2022-09-18T21:22:09.094Z,100.00
2022-09-18T21:24:35.195Z,100.00
2022-09-18T21:27:01.288Z,100.00
2022-09-18T21:29:27.392Z,100.00
2022-09-18T21:31:53.483Z,100.00
2022-09-18T21:34:19.575Z,100.00
2022-09-18T21:36:45.681Z,100.00
2022-09-18T21:39:11.773Z,100.00
2022-09-18T21:41:37.867Z,100.00
2022-09-18T21:44:03.983Z,100.00
2022-09-18T21:46:30.128Z,100.00
2022-09-18T21:48:56.294Z,100.00
2022-09-18T21:51:22.441Z,100.00
2022-09-18T21:53:48.541Z,100.00
2022-09-18T21:56:14.638Z,100.00
2022-09-18T21:58:40.928Z,100.00
2022-09-18T22:01:07.103Z,100.00
2022-09-18T22:03:33.352Z,100.00
2022-09-18T22:05:59.509Z,100.00
2022-09-18T22:08:27.754Z,100.00
2022-09-18T22:10:53.898Z,100.00
2022-09-18T22:13:20.100Z,100.00
2022-09-18T22:15:46.479Z,100.00
2022-09-18T22:18:12.708Z,100.00
2022-09-18T22:20:39.325Z,100.00
2022-09-18T22:23:05.510Z,100.00
2022-09-18T22:25:31.623Z,100.00
2022-09-18T22:27:57.743Z,100.00
2022-09-18T22:30:23.824Z,100.00
2022-09-18T22:32:49.905Z,100.00
2022-09-18T22:35:16.008Z,100.00
2022-09-18T22:37:42.139Z,100.00
2022-09-18T22:40:08.280Z,100.00
2022-09-18T22:42:34.983Z,100.00
2022-09-18T22:45:01.102Z,100.00
2022-09-18T22:47:27.192Z,100.00
2022-09-18T22:49:53.307Z,100.00
2022-09-18T22:52:19.393Z,100.00
2022-09-18T22:54:45.486Z,100.00
2022-09-18T22:57:11.611Z,100.00
2022-09-18T22:59:37.730Z,100.00
2022-09-18T23:02:03.850Z,100.00
2022-09-18T23:04:30.115Z,100.00
2022-09-18T23:06:56.246Z,100.00
2022-09-18T23:09:22.329Z,100.00
2022-09-18T23:11:48.434Z,100.00
2022-09-18T23:14:14.518Z,100.00
2022-09-18T23:16:40.614Z,100.00
2022-09-18T23:19:06.721Z,100.00
2022-09-18T23:21:32.804Z,100.00
2022-09-18T23:23:58.921Z,100.00
2022-09-18T23:26:25.024Z,100.00
2022-09-18T23:28:51.133Z,100.00
2022-09-18T23:31:17.241Z,100.00
2022-09-18T23:33:43.392Z,100.00
2022-09-18T23:36:09.489Z,100.00
2022-09-18T23:38:35.572Z,100.00
2022-09-18T23:41:01.693Z,100.00
2022-09-18T23:43:27.791Z,100.00
2022-09-18T23:45:53.878Z,100.00
2022-09-18T23:48:20.244Z,100.00
2022-09-18T23:50:46.362Z,100.00
2022-09-18T23:53:12.447Z,100.00
2022-09-18T23:55:38.564Z,100.00
2022-09-18T23:58:04.644Z,99.96
